sensor_id;sensor_type;location;lat;lon;timestamp;temperature;humidity
1377;DHT22;682;52.502;13.488;2022-09-30T00:01:12;7.40;1.00
1377;DHT22;682;52.502;13.488;2022-09-30T00:03:39;7.40;1.00
1377;DHT22;682;52.502;13.488;2022-09-30T00:06:08;7.30;1.00
1377;DHT22;682;52.502;13.488;2022-09-30T00:08:36;7.30;1.00
1377;DHT22;682;52.502;13.488;2022-09-30T00:11:10;7.40;1.00
1377;DHT22;682;52.502;13.488;2022-09-30T00:13:39;7.40;1.00
1377;DHT22;682;52.502;13.488;2022-09-30T00:16:07;7.40;1.00
1377;DHT22;682;52.502;13.488;2022-09-30T00:18:34;7.40;1.00
1377;DHT22;682;52.502;13.488;2022-09-30T00:21:03;7.30;1.00
1377;DHT22;682;52.502;13.488;2022-09-30T00:23:31;7.30;1.00
1377;DHT22;682;52.502;13.488;2022-09-30T00:25:58;7.20;1.00
1377;DHT22;682;52.502;13.488;2022-09-30T00:28:28;7.30;1.00
1377;DHT22;682;52.502;13.488;2022-09-30T00:30:58;7.30;1.00
1377;DHT22;682;52.502;13.488;2022-09-30T00:33:29;7.20;1.00
1377;DHT22;682;52.502;13.488;2022-09-30T00:35:56;7.20;1.00
1377;DHT22;682;52.502;13.488;2022-09-30T00:38:23;7.20;1.00
1377;DHT22;682;52.502;13.488;2022-09-30T00:40:50;7.20;1.00
1377;DHT22;682;52.502;13.488;2022-09-30T00:43:19;7.20;1.00
1377;DHT22;682;52.502;13.488;2022-09-30T00:45:51;7.20;1.00
1377;DHT22;682;52.502;13.488;2022-09-30T00:48:25;7.10;1.00
1377;DHT22;682;52.502;13.488;2022-09-30T00:51:11;7.10;1.00
1377;DHT22;682;52.502;13.488;2022-09-30T00:53:42;7.10;1.00
1377;DHT22;682;52.502;13.488;2022-09-30T00:56:15;7.10;1.00
1377;DHT22;682;52.502;13.488;2022-09-30T00:58:47;7.00;1.00
1377;DHT22;682;52.502;13.488;2022-09-30T01:01:18;7.00;1.00
1377;DHT22;682;52.502;13.488;2022-09-30T01:03:46;7.00;1.00
1377;DHT22;682;52.502;13.488;2022-09-30T01:06:21;7.00;1.00
1377;DHT22;682;52.502;13.488;2022-09-30T01:08:49;7.00;1.00
1377;DHT22;682;52.502;13.488;2022-09-30T01:11:16;7.00;1.00
1377;DHT22;682;52.502;13.488;2022-09-30T01:13:45;7.10;1.00
1377;DHT22;682;52.502;13.488;2022-09-30T01:16:38;7.00;1.00
1377;DHT22;682;52.502;13.488;2022-09-30T01:19:31;7.00;1.00
1377;DHT22;682;52.502;13.488;2022-09-30T01:22:31;7.00;1.00
1377;DHT22;682;52.502;13.488;2022-09-30T01:25:17;7.00;1.00
1377;DHT22;682;52.502;13.488;2022-09-30T01:28:13;6.90;1.00
1377;DHT22;682;52.502;13.488;2022-09-30T01:31:10;6.80;1.00
1377;DHT22;682;52.502;13.488;2022-09-30T01:33:47;6.80;1.00
1377;DHT22;682;52.502;13.488;2022-09-30T01:36:31;6.90;1.00
1377;DHT22;682;52.502;13.488;2022-09-30T01:39:12;6.80;1.00
1377;DHT22;682;52.502;13.488;2022-09-30T01:41:48;6.80;1.00
1377;DHT22;682;52.502;13.488;2022-09-30T01:44:26;6.80;1.00
1377;DHT22;682;52.502;13.488;2022-09-30T01:47:00;6.80;1.00
1377;DHT22;682;52.502;13.488;2022-09-30T01:49:36;6.80;1.00
1377;DHT22;682;52.502;13.488;2022-09-30T01:52:11;6.80;1.00
1377;DHT22;682;52.502;13.488;2022-09-30T01:54:47;6.80;1.00
1377;DHT22;682;52.502;13.488;2022-09-30T01:57:23;6.90;1.00
1377;DHT22;682;52.502;13.488;2022-09-30T01:59:56;6.90;1.00
1377;DHT22;682;52.502;13.488;2022-09-30T02:02:28;6.90;1.00
1377;DHT22;682;52.502;13.488;2022-09-30T02:04:58;6.90;1.00
1377;DHT22;682;52.502;13.488;2022-09-30T02:07:30;6.80;1.00
1377;DHT22;682;52.502;13.488;2022-09-30T02:10:02;6.80;1.00
1377;DHT22;682;52.502;13.488;2022-09-30T02:12:34;6.80;1.00
1377;DHT22;682;52.502;13.488;2022-09-30T02:15:09;6.70;1.00
1377;DHT22;682;52.502;13.488;2022-09-30T02:17:43;6.60;1.00
1377;DHT22;682;52.502;13.488;2022-09-30T02:20:16;6.60;1.00
1377;DHT22;682;52.502;13.488;2022-09-30T02:22:47;6.50;1.00
1377;DHT22;682;52.502;13.488;2022-09-30T02:25:23;6.60;1.00
1377;DHT22;682;52.502;13.488;2022-09-30T02:27:54;6.60;1.00
1377;DHT22;682;52.502;13.488;2022-09-30T02:30:23;6.60;1.00
1377;DHT22;682;52.502;13.488;2022-09-30T02:32:56;6.60;1.00
1377;DHT22;682;52.502;13.488;2022-09-30T02:35:29;6.60;1.00
1377;DHT22;682;52.502;13.488;2022-09-30T02:38:03;6.60;1.00
1377;DHT22;682;52.502;13.488;2022-09-30T02:40:37;6.60;1.00
1377;DHT22;682;52.502;13.488;2022-09-30T02:43:06;6.50;1.00
1377;DHT22;682;52.502;13.488;2022-09-30T02:45:41;6.50;1.00
1377;DHT22;682;52.502;13.488;2022-09-30T02:48:21;6.50;1.00
1377;DHT22;682;52.502;13.488;2022-09-30T02:50:55;6.50;1.00
1377;DHT22;682;52.502;13.488;2022-09-30T02:53:32;6.50;1.00
1377;DHT22;682;52.502;13.488;2022-09-30T02:56:11;6.40;1.00
1377;DHT22;682;52.502;13.488;2022-09-30T02:58:40;6.40;1.00
1377;DHT22;682;52.502;13.488;2022-09-30T03:01:10;6.40;1.00
1377;DHT22;682;52.502;13.488;2022-09-30T03:03:42;6.40;1.00
1377;DHT22;682;52.502;13.488;2022-09-30T03:06:10;6.50;1.00
1377;DHT22;682;52.502;13.488;2022-09-30T03:08:37;6.40;1.00
1377;DHT22;682;52.502;13.488;2022-09-30T03:11:04;6.40;1.00
1377;DHT22;682;52.502;13.488;2022-09-30T03:13:55;6.30;1.00
1377;DHT22;682;52.502;13.488;2022-09-30T03:16:37;6.20;1.00
1377;DHT22;682;52.502;13.488;2022-09-30T03:19:20;6.20;1.00
1377;DHT22;682;52.502;13.488;2022-09-30T03:22:02;6.20;1.00
1377;DHT22;682;52.502;13.488;2022-09-30T03:24:50;6.20;1.00
1377;DHT22;682;52.502;13.488;2022-09-30T03:27:28;6.20;1.00
1377;DHT22;682;52.502;13.488;2022-09-30T03:30:04;6.20;1.00
1377;DHT22;682;52.502;13.488;2022-09-30T03:32:43;6.10;1.00
1377;DHT22;682;52.502;13.488;2022-09-30T03:35:27;6.00;1.00
1377;DHT22;682;52.502;13.488;2022-09-30T03:38:00;6.00;1.00
1377;DHT22;682;52.502;13.488;2022-09-30T03:40:37;6.00;1.00
1377;DHT22;682;52.502;13.488;2022-09-30T03:43:14;6.00;1.00
1377;DHT22;682;52.502;13.488;2022-09-30T03:45:47;6.00;1.00
1377;DHT22;682;52.502;13.488;2022-09-30T03:48:17;6.00;1.00
1377;DHT22;682;52.502;13.488;2022-09-30T03:50:47;6.00;1.00
1377;DHT22;682;52.502;13.488;2022-09-30T03:53:14;6.00;1.00
1377;DHT22;682;52.502;13.488;2022-09-30T03:55:49;6.10;1.00
1377;DHT22;682;52.502;13.488;2022-09-30T03:58:17;6.10;1.00
1377;DHT22;682;52.502;13.488;2022-09-30T04:00:48;6.20;1.00
1377;DHT22;682;52.502;13.488;2022-09-30T04:03:15;6.20;1.00
1377;DHT22;682;52.502;13.488;2022-09-30T04:05:42;6.20;1.00
1377;DHT22;682;52.502;13.488;2022-09-30T04:08:10;6.20;1.00
1377;DHT22;682;52.502;13.488;2022-09-30T04:10:38;6.10;1.00
1377;DHT22;682;52.502;13.488;2022-09-30T04:13:06;6.10;1.00
1377;DHT22;682;52.502;13.488;2022-09-30T04:15:33;6.10;1.00
1377;DHT22;682;52.502;13.488;2022-09-30T04:18:00;6.10;1.00
1377;DHT22;682;52.502;13.488;2022-09-30T04:20:28;6.10;1.00
1377;DHT22;682;52.502;13.488;2022-09-30T04:22:56;6.10;1.00
1377;DHT22;682;52.502;13.488;2022-09-30T04:25:25;6.00;1.00
1377;DHT22;682;52.502;13.488;2022-09-30T04:27:53;6.00;1.00
1377;DHT22;682;52.502;13.488;2022-09-30T04:30:20;6.00;1.00
1377;DHT22;682;52.502;13.488;2022-09-30T04:32:47;6.00;1.00
1377;DHT22;682;52.502;13.488;2022-09-30T04:35:15;6.00;1.00
1377;DHT22;682;52.502;13.488;2022-09-30T04:37:42;6.00;1.00
1377;DHT22;682;52.502;13.488;2022-09-30T04:40:10;6.00;1.00
1377;DHT22;682;52.502;13.488;2022-09-30T04:42:39;6.00;1.00
1377;DHT22;682;52.502;13.488;2022-09-30T04:45:11;6.00;1.00
1377;DHT22;682;52.502;13.488;2022-09-30T04:47:42;5.90;1.00
1377;DHT22;682;52.502;13.488;2022-09-30T04:50:10;5.90;1.00
1377;DHT22;682;52.502;13.488;2022-09-30T04:52:40;5.90;1.00
1377;DHT22;682;52.502;13.488;2022-09-30T04:55:08;5.90;1.00
1377;DHT22;682;52.502;13.488;2022-09-30T04:57:36;5.90;1.00
1377;DHT22;682;52.502;13.488;2022-09-30T05:00:06;5.90;1.00
1377;DHT22;682;52.502;13.488;2022-09-30T05:02:33;6.00;1.00
1377;DHT22;682;52.502;13.488;2022-09-30T05:05:01;6.00;1.00
1377;DHT22;682;52.502;13.488;2022-09-30T05:07:30;6.00;1.00
1377;DHT22;682;52.502;13.488;2022-09-30T05:09:56;5.90;1.00
1377;DHT22;682;52.502;13.488;2022-09-30T05:12:23;5.90;1.00
1377;DHT22;682;52.502;13.488;2022-09-30T05:14:50;5.90;1.00
1377;DHT22;682;52.502;13.488;2022-09-30T05:17:18;5.90;1.00
1377;DHT22;682;52.502;13.488;2022-09-30T05:19:45;5.90;1.00
1377;DHT22;682;52.502;13.488;2022-09-30T05:22:13;6.00;1.00
1377;DHT22;682;52.502;13.488;2022-09-30T05:24:41;6.00;1.00
1377;DHT22;682;52.502;13.488;2022-09-30T05:27:10;6.00;1.00
1377;DHT22;682;52.502;13.488;2022-09-30T05:29:40;6.00;1.00
1377;DHT22;682;52.502;13.488;2022-09-30T05:32:08;6.10;1.00
1377;DHT22;682;52.502;13.488;2022-09-30T05:34:36;6.10;1.00
1377;DHT22;682;52.502;13.488;2022-09-30T05:37:03;6.10;1.00
1377;DHT22;682;52.502;13.488;2022-09-30T05:39:31;6.10;1.00
1377;DHT22;682;52.502;13.488;2022-09-30T05:42:00;6.10;1.00
1377;DHT22;682;52.502;13.488;2022-09-30T05:44:27;6.20;1.00
1377;DHT22;682;52.502;13.488;2022-09-30T05:46:54;6.20;1.00
1377;DHT22;682;52.502;13.488;2022-09-30T05:49:24;6.20;1.00
1377;DHT22;682;52.502;13.488;2022-09-30T05:51:52;6.20;1.00
1377;DHT22;682;52.502;13.488;2022-09-30T05:54:20;6.20;1.00
1377;DHT22;682;52.502;13.488;2022-09-30T05:56:47;6.30;1.00
1377;DHT22;682;52.502;13.488;2022-09-30T05:59:15;6.30;1.00
1377;DHT22;682;52.502;13.488;2022-09-30T06:01:43;6.30;1.00
1377;DHT22;682;52.502;13.488;2022-09-30T06:04:09;6.30;1.00
1377;DHT22;682;52.502;13.488;2022-09-30T06:06:36;6.40;1.00
1377;DHT22;682;52.502;13.488;2022-09-30T06:09:04;6.40;1.00
1377;DHT22;682;52.502;13.488;2022-09-30T06:11:31;6.50;1.00
1377;DHT22;682;52.502;13.488;2022-09-30T06:14:00;6.50;1.00
1377;DHT22;682;52.502;13.488;2022-09-30T06:16:28;6.50;1.00
1377;DHT22;682;52.502;13.488;2022-09-30T06:18:56;6.60;1.00
1377;DHT22;682;52.502;13.488;2022-09-30T06:21:24;6.70;1.00
1377;DHT22;682;52.502;13.488;2022-09-30T06:23:52;6.70;1.00
1377;DHT22;682;52.502;13.488;2022-09-30T06:26:20;6.80;1.00
1377;DHT22;682;52.502;13.488;2022-09-30T06:28:49;6.90;1.00
1377;DHT22;682;52.502;13.488;2022-09-30T06:31:16;7.00;1.00
1377;DHT22;682;52.502;13.488;2022-09-30T06:33:43;7.10;1.00
1377;DHT22;682;52.502;13.488;2022-09-30T06:36:12;7.20;1.00
1377;DHT22;682;52.502;13.488;2022-09-30T06:38:43;7.30;1.00
1377;DHT22;682;52.502;13.488;2022-09-30T06:41:10;7.50;1.00
1377;DHT22;682;52.502;13.488;2022-09-30T06:43:40;7.60;1.00
1377;DHT22;682;52.502;13.488;2022-09-30T06:46:11;7.70;1.00
1377;DHT22;682;52.502;13.488;2022-09-30T06:48:40;7.70;1.00
1377;DHT22;682;52.502;13.488;2022-09-30T06:51:07;7.80;1.00
1377;DHT22;682;52.502;13.488;2022-09-30T06:53:36;7.90;1.00
1377;DHT22;682;52.502;13.488;2022-09-30T06:56:04;8.00;1.00
1377;DHT22;682;52.502;13.488;2022-09-30T06:58:34;8.10;1.00
1377;DHT22;682;52.502;13.488;2022-09-30T07:01:04;8.20;1.00
1377;DHT22;682;52.502;13.488;2022-09-30T07:03:33;8.30;1.00
1377;DHT22;682;52.502;13.488;2022-09-30T07:06:02;8.40;1.00
1377;DHT22;682;52.502;13.488;2022-09-30T07:08:35;8.50;1.00
1377;DHT22;682;52.502;13.488;2022-09-30T07:11:06;8.60;1.00
1377;DHT22;682;52.502;13.488;2022-09-30T07:13:36;8.80;1.00
1377;DHT22;682;52.502;13.488;2022-09-30T07:16:05;8.90;1.00
1377;DHT22;682;52.502;13.488;2022-09-30T07:18:59;8.90;1.00
1377;DHT22;682;52.502;13.488;2022-09-30T07:21:26;9.10;1.00
1377;DHT22;682;52.502;13.488;2022-09-30T07:23:55;9.20;1.00
1377;DHT22;682;52.502;13.488;2022-09-30T07:26:25;9.20;1.00
1377;DHT22;682;52.502;13.488;2022-09-30T07:28:53;9.30;1.00
1377;DHT22;682;52.502;13.488;2022-09-30T07:31:22;9.40;1.00
1377;DHT22;682;52.502;13.488;2022-09-30T07:33:51;9.50;1.00
1377;DHT22;682;52.502;13.488;2022-09-30T07:36:22;9.50;1.00
1377;DHT22;682;52.502;13.488;2022-09-30T07:38:52;9.60;1.00
1377;DHT22;682;52.502;13.488;2022-09-30T07:41:24;9.70;1.00
1377;DHT22;682;52.502;13.488;2022-09-30T07:43:54;9.80;1.00
1377;DHT22;682;52.502;13.488;2022-09-30T07:46:27;10.00;1.00
1377;DHT22;682;52.502;13.488;2022-09-30T07:48:56;10.00;1.00
1377;DHT22;682;52.502;13.488;2022-09-30T07:51:29;10.10;1.00
1377;DHT22;682;52.502;13.488;2022-09-30T07:53:59;10.10;1.00
1377;DHT22;682;52.502;13.488;2022-09-30T07:56:30;10.20;1.00
1377;DHT22;682;52.502;13.488;2022-09-30T07:58:59;10.30;1.00
1377;DHT22;682;52.502;13.488;2022-09-30T08:01:31;10.50;1.00
1377;DHT22;682;52.502;13.488;2022-09-30T08:04:05;10.70;1.00
1377;DHT22;682;52.502;13.488;2022-09-30T08:06:36;10.80;1.00
1377;DHT22;682;52.502;13.488;2022-09-30T08:09:04;11.00;1.00
1377;DHT22;682;52.502;13.488;2022-09-30T08:11:35;11.20;1.00
1377;DHT22;682;52.502;13.488;2022-09-30T08:14:06;11.30;1.00
1377;DHT22;682;52.502;13.488;2022-09-30T08:16:37;11.40;1.00
1377;DHT22;682;52.502;13.488;2022-09-30T08:19:04;11.40;1.00
1377;DHT22;682;52.502;13.488;2022-09-30T08:21:33;11.50;1.00
1377;DHT22;682;52.502;13.488;2022-09-30T08:24:03;11.70;1.00
1377;DHT22;682;52.502;13.488;2022-09-30T08:26:30;11.80;1.00
1377;DHT22;682;52.502;13.488;2022-09-30T08:28:59;11.80;1.00
1377;DHT22;682;52.502;13.488;2022-09-30T08:31:26;12.00;1.00
1377;DHT22;682;52.502;13.488;2022-09-30T08:33:55;12.20;1.00
1377;DHT22;682;52.502;13.488;2022-09-30T08:36:23;12.40;1.00
1377;DHT22;682;52.502;13.488;2022-09-30T08:38:51;12.50;1.00
1377;DHT22;682;52.502;13.488;2022-09-30T08:44:24;13.00;1.00
1377;DHT22;682;52.502;13.488;2022-09-30T08:46:56;13.40;1.00
1377;DHT22;682;52.502;13.488;2022-09-30T08:49:41;13.90;1.00
1377;DHT22;682;52.502;13.488;2022-09-30T08:52:16;14.60;1.00
1377;DHT22;682;52.502;13.488;2022-09-30T08:54:49;15.60;1.00
1377;DHT22;682;52.502;13.488;2022-09-30T08:57:17;17.00;1.00
1377;DHT22;682;52.502;13.488;2022-09-30T08:59:48;18.30;1.00
1377;DHT22;682;52.502;13.488;2022-09-30T09:02:20;19.30;1.00
1377;DHT22;682;52.502;13.488;2022-09-30T09:04:50;20.60;1.00
1377;DHT22;682;52.502;13.488;2022-09-30T09:07:32;21.50;1.00
1377;DHT22;682;52.502;13.488;2022-09-30T09:10:15;22.60;1.00
1377;DHT22;682;52.502;13.488;2022-09-30T09:12:54;23.80;1.00
1377;DHT22;682;52.502;13.488;2022-09-30T09:15:44;24.60;1.00
1377;DHT22;682;52.502;13.488;2022-09-30T09:18:28;25.50;1.00
1377;DHT22;682;52.502;13.488;2022-09-30T09:21:15;25.90;1.00
1377;DHT22;682;52.502;13.488;2022-09-30T09:23:46;26.40;1.00
1377;DHT22;682;52.502;13.488;2022-09-30T09:26:17;26.90;1.00
1377;DHT22;682;52.502;13.488;2022-09-30T09:28:53;26.40;1.00
1377;DHT22;682;52.502;13.488;2022-09-30T09:31:24;26.30;1.00
1377;DHT22;682;52.502;13.488;2022-09-30T09:33:51;26.50;1.00
1377;DHT22;682;52.502;13.488;2022-09-30T09:36:33;26.60;1.00
1377;DHT22;682;52.502;13.488;2022-09-30T09:42:25;26.30;1.00
1377;DHT22;682;52.502;13.488;2022-09-30T09:44:57;26.10;1.00
1377;DHT22;682;52.502;13.488;2022-09-30T09:47:28;25.40;1.00
1377;DHT22;682;52.502;13.488;2022-09-30T09:49:58;25.20;1.00
1377;DHT22;682;52.502;13.488;2022-09-30T09:52:56;25.00;1.00
1377;DHT22;682;52.502;13.488;2022-09-30T09:55:25;24.80;1.00
1377;DHT22;682;52.502;13.488;2022-09-30T09:58:05;24.50;1.00
1377;DHT22;682;52.502;13.488;2022-09-30T10:00:34;24.10;1.00
1377;DHT22;682;52.502;13.488;2022-09-30T10:03:20;23.50;1.00
1377;DHT22;682;52.502;13.488;2022-09-30T10:06:00;23.80;1.00
1377;DHT22;682;52.502;13.488;2022-09-30T10:08:33;24.70;1.00
1377;DHT22;682;52.502;13.488;2022-09-30T10:11:06;25.20;1.00
1377;DHT22;682;52.502;13.488;2022-09-30T10:13:42;25.30;1.00
1377;DHT22;682;52.502;13.488;2022-09-30T10:16:26;26.20;1.00
1377;DHT22;682;52.502;13.488;2022-09-30T10:18:55;26.60;1.00
1377;DHT22;682;52.502;13.488;2022-09-30T10:21:24;27.80;1.00
1377;DHT22;682;52.502;13.488;2022-09-30T10:23:53;28.90;1.00
1377;DHT22;682;52.502;13.488;2022-09-30T10:26:22;30.10;1.00
1377;DHT22;682;52.502;13.488;2022-09-30T10:28:52;30.50;1.00
1377;DHT22;682;52.502;13.488;2022-09-30T10:31:22;30.40;1.00
1377;DHT22;682;52.502;13.488;2022-09-30T10:33:56;28.50;1.00
1377;DHT22;682;52.502;13.488;2022-09-30T10:36:31;28.10;1.00
1377;DHT22;682;52.502;13.488;2022-09-30T10:39:04;29.00;1.00
1377;DHT22;682;52.502;13.488;2022-09-30T10:41:34;30.00;1.00
1377;DHT22;682;52.502;13.488;2022-09-30T10:44:03;30.10;1.00
1377;DHT22;682;52.502;13.488;2022-09-30T10:46:33;29.70;1.00
1377;DHT22;682;52.502;13.488;2022-09-30T10:49:10;29.50;1.00
1377;DHT22;682;52.502;13.488;2022-09-30T10:51:38;30.00;1.00
1377;DHT22;682;52.502;13.488;2022-09-30T10:54:34;30.40;1.00
1377;DHT22;682;52.502;13.488;2022-09-30T10:57:02;31.20;1.00
1377;DHT22;682;52.502;13.488;2022-09-30T10:59:35;32.40;1.00
1377;DHT22;682;52.502;13.488;2022-09-30T11:02:25;33.10;1.00
1377;DHT22;682;52.502;13.488;2022-09-30T11:05:20;32.60;1.00
1377;DHT22;682;52.502;13.488;2022-09-30T11:07:53;32.80;1.00
1377;DHT22;682;52.502;13.488;2022-09-30T11:10:41;33.30;1.00
1377;DHT22;682;52.502;13.488;2022-09-30T11:13:14;33.40;1.00
1377;DHT22;682;52.502;13.488;2022-09-30T11:15:59;33.20;1.00
1377;DHT22;682;52.502;13.488;2022-09-30T11:18:34;32.50;1.00
1377;DHT22;682;52.502;13.488;2022-09-30T11:21:11;30.70;1.00
1377;DHT22;682;52.502;13.488;2022-09-30T11:23:43;31.30;1.00
1377;DHT22;682;52.502;13.488;2022-09-30T11:26:24;32.30;1.00
1377;DHT22;682;52.502;13.488;2022-09-30T11:29:09;33.10;1.00
1377;DHT22;682;52.502;13.488;2022-09-30T11:31:44;33.90;1.00
1377;DHT22;682;52.502;13.488;2022-09-30T11:34:24;32.20;1.00
1377;DHT22;682;52.502;13.488;2022-09-30T11:36:59;32.60;1.00
1377;DHT22;682;52.502;13.488;2022-09-30T11:39:49;33.00;1.00
1377;DHT22;682;52.502;13.488;2022-09-30T11:42:28;33.50;1.00
1377;DHT22;682;52.502;13.488;2022-09-30T11:45:05;33.40;1.00
1377;DHT22;682;52.502;13.488;2022-09-30T11:47:47;31.80;1.00
1377;DHT22;682;52.502;13.488;2022-09-30T11:50:27;32.40;1.00
1377;DHT22;682;52.502;13.488;2022-09-30T11:53:07;30.30;1.00
1377;DHT22;682;52.502;13.488;2022-09-30T11:55:56;29.90;1.00
1377;DHT22;682;52.502;13.488;2022-09-30T11:58:42;30.20;1.00
1377;DHT22;682;52.502;13.488;2022-09-30T12:01:19;29.50;1.00
1377;DHT22;682;52.502;13.488;2022-09-30T12:03:56;29.70;1.00
1377;DHT22;682;52.502;13.488;2022-09-30T12:06:29;30.70;1.00
1377;DHT22;682;52.502;13.488;2022-09-30T12:09:06;31.80;1.00
1377;DHT22;682;52.502;13.488;2022-09-30T12:11:39;33.00;1.00
1377;DHT22;682;52.502;13.488;2022-09-30T12:14:21;34.20;1.00
1377;DHT22;682;52.502;13.488;2022-09-30T12:16:50;34.30;1.00
1377;DHT22;682;52.502;13.488;2022-09-30T12:19:20;34.50;1.00
1377;DHT22;682;52.502;13.488;2022-09-30T12:21:56;35.20;1.00
1377;DHT22;682;52.502;13.488;2022-09-30T12:24:28;33.90;1.00
1377;DHT22;682;52.502;13.488;2022-09-30T12:26:57;32.70;1.00
1377;DHT22;682;52.502;13.488;2022-09-30T12:29:30;31.30;1.00
1377;DHT22;682;52.502;13.488;2022-09-30T12:32:40;29.30;1.00
1377;DHT22;682;52.502;13.488;2022-09-30T12:35:40;30.10;1.00
1377;DHT22;682;52.502;13.488;2022-09-30T12:38:18;32.20;1.00
1377;DHT22;682;52.502;13.488;2022-09-30T12:41:01;33.10;1.00
1377;DHT22;682;52.502;13.488;2022-09-30T12:43:58;32.70;1.00
1377;DHT22;682;52.502;13.488;2022-09-30T12:46:47;29.90;1.00
1377;DHT22;682;52.502;13.488;2022-09-30T12:49:23;27.40;1.00
1377;DHT22;682;52.502;13.488;2022-09-30T12:51:54;25.30;1.00
1377;DHT22;682;52.502;13.488;2022-09-30T12:54:27;23.90;1.00
1377;DHT22;682;52.502;13.488;2022-09-30T12:57:00;23.00;1.00
1377;DHT22;682;52.502;13.488;2022-09-30T12:59:47;22.80;1.00
1377;DHT22;682;52.502;13.488;2022-09-30T13:02:55;22.40;1.00
1377;DHT22;682;52.502;13.488;2022-09-30T13:05:55;21.60;1.00
1377;DHT22;682;52.502;13.488;2022-09-30T13:08:47;21.50;1.00
1377;DHT22;682;52.502;13.488;2022-09-30T13:11:37;21.50;1.00
1377;DHT22;682;52.502;13.488;2022-09-30T13:14:22;21.40;1.00
1377;DHT22;682;52.502;13.488;2022-09-30T13:17:25;21.00;1.00
1377;DHT22;682;52.502;13.488;2022-09-30T13:19:56;20.70;1.00
1377;DHT22;682;52.502;13.488;2022-09-30T13:22:56;20.40;1.00
1377;DHT22;682;52.502;13.488;2022-09-30T13:25:25;20.60;1.00
1377;DHT22;682;52.502;13.488;2022-09-30T13:28:28;20.70;1.00
1377;DHT22;682;52.502;13.488;2022-09-30T13:31:16;20.70;1.00
1377;DHT22;682;52.502;13.488;2022-09-30T13:33:46;20.30;1.00
1377;DHT22;682;52.502;13.488;2022-09-30T13:36:27;20.10;1.00
1377;DHT22;682;52.502;13.488;2022-09-30T13:39:18;20.00;1.00
1377;DHT22;682;52.502;13.488;2022-09-30T13:41:59;19.90;1.00
1377;DHT22;682;52.502;13.488;2022-09-30T13:44:36;19.70;1.00
1377;DHT22;682;52.502;13.488;2022-09-30T13:47:24;19.60;1.00
1377;DHT22;682;52.502;13.488;2022-09-30T13:49:58;19.40;1.00
1377;DHT22;682;52.502;13.488;2022-09-30T13:52:37;19.40;1.00
1377;DHT22;682;52.502;13.488;2022-09-30T13:55:14;19.30;1.00
1377;DHT22;682;52.502;13.488;2022-09-30T13:57:59;19.20;1.00
1377;DHT22;682;52.502;13.488;2022-09-30T14:00:46;19.20;1.00
1377;DHT22;682;52.502;13.488;2022-09-30T14:04:03;19.20;1.00
1377;DHT22;682;52.502;13.488;2022-09-30T14:06:45;19.30;1.00
1377;DHT22;682;52.502;13.488;2022-09-30T14:09:43;19.30;1.00
1377;DHT22;682;52.502;13.488;2022-09-30T14:12:29;19.30;1.00
1377;DHT22;682;52.502;13.488;2022-09-30T14:15:42;19.30;1.00
1377;DHT22;682;52.502;13.488;2022-09-30T14:21:42;19.20;1.00
1377;DHT22;682;52.502;13.488;2022-09-30T14:24:16;19.20;1.00
1377;DHT22;682;52.502;13.488;2022-09-30T14:27:29;19.10;1.00
1377;DHT22;682;52.502;13.488;2022-09-30T14:30:26;19.00;1.00
1377;DHT22;682;52.502;13.488;2022-09-30T14:32:56;18.90;1.00
1377;DHT22;682;52.502;13.488;2022-09-30T14:35:30;18.80;1.00
1377;DHT22;682;52.502;13.488;2022-09-30T14:38:06;18.80;1.00
1377;DHT22;682;52.502;13.488;2022-09-30T14:40:38;18.80;1.00
1377;DHT22;682;52.502;13.488;2022-09-30T14:43:17;18.60;1.00
1377;DHT22;682;52.502;13.488;2022-09-30T14:46:03;18.60;1.00
1377;DHT22;682;52.502;13.488;2022-09-30T14:48:38;18.60;1.00
1377;DHT22;682;52.502;13.488;2022-09-30T14:51:10;18.70;1.00
1377;DHT22;682;52.502;13.488;2022-09-30T14:53:51;18.70;1.00
1377;DHT22;682;52.502;13.488;2022-09-30T14:56:26;18.70;1.00
1377;DHT22;682;52.502;13.488;2022-09-30T14:58:59;18.50;1.00
1377;DHT22;682;52.502;13.488;2022-09-30T15:01:31;18.40;1.00
1377;DHT22;682;52.502;13.488;2022-09-30T15:04:11;18.30;1.00
1377;DHT22;682;52.502;13.488;2022-09-30T15:06:46;18.30;1.00
1377;DHT22;682;52.502;13.488;2022-09-30T15:09:20;18.30;1.00
1377;DHT22;682;52.502;13.488;2022-09-30T15:12:06;18.30;1.00
1377;DHT22;682;52.502;13.488;2022-09-30T15:14:56;18.20;1.00
1377;DHT22;682;52.502;13.488;2022-09-30T15:17:29;18.10;1.00
1377;DHT22;682;52.502;13.488;2022-09-30T15:20:27;18.00;1.00
1377;DHT22;682;52.502;13.488;2022-09-30T15:23:04;18.00;1.00
1377;DHT22;682;52.502;13.488;2022-09-30T15:25:36;18.00;1.00
1377;DHT22;682;52.502;13.488;2022-09-30T15:28:16;17.90;1.00
1377;DHT22;682;52.502;13.488;2022-09-30T15:31:00;17.90;1.00
1377;DHT22;682;52.502;13.488;2022-09-30T15:33:30;17.70;1.00
1377;DHT22;682;52.502;13.488;2022-09-30T15:36:04;17.70;1.00
1377;DHT22;682;52.502;13.488;2022-09-30T15:38:36;17.70;1.00
1377;DHT22;682;52.502;13.488;2022-09-30T15:41:08;17.60;1.00
1377;DHT22;682;52.502;13.488;2022-09-30T15:43:43;17.70;1.00
1377;DHT22;682;52.502;13.488;2022-09-30T15:46:30;17.70;1.00
1377;DHT22;682;52.502;13.488;2022-09-30T15:49:42;17.80;1.00
1377;DHT22;682;52.502;13.488;2022-09-30T15:52:25;17.70;1.00
1377;DHT22;682;52.502;13.488;2022-09-30T15:54:57;17.60;1.00
1377;DHT22;682;52.502;13.488;2022-09-30T15:57:43;17.50;1.00
1377;DHT22;682;52.502;13.488;2022-09-30T16:00:33;17.50;1.00
1377;DHT22;682;52.502;13.488;2022-09-30T16:03:27;17.40;1.00
1377;DHT22;682;52.502;13.488;2022-09-30T16:06:07;17.30;1.00
1377;DHT22;682;52.502;13.488;2022-09-30T16:08:41;17.20;1.00
1377;DHT22;682;52.502;13.488;2022-09-30T16:11:36;17.10;1.00
1377;DHT22;682;52.502;13.488;2022-09-30T16:14:10;17.00;1.00
1377;DHT22;682;52.502;13.488;2022-09-30T16:16:47;16.80;1.00
1377;DHT22;682;52.502;13.488;2022-09-30T16:19:19;16.70;1.00
1377;DHT22;682;52.502;13.488;2022-09-30T16:21:49;16.50;1.00
1377;DHT22;682;52.502;13.488;2022-09-30T16:24:47;16.50;1.00
1377;DHT22;682;52.502;13.488;2022-09-30T16:27:28;16.40;1.00
1377;DHT22;682;52.502;13.488;2022-09-30T16:29:59;16.40;1.00
1377;DHT22;682;52.502;13.488;2022-09-30T16:32:41;16.20;1.00
1377;DHT22;682;52.502;13.488;2022-09-30T16:35:19;16.10;1.00
1377;DHT22;682;52.502;13.488;2022-09-30T16:37:59;16.00;1.00
1377;DHT22;682;52.502;13.488;2022-09-30T16:40:30;15.90;1.00
1377;DHT22;682;52.502;13.488;2022-09-30T16:43:03;15.80;1.00
1377;DHT22;682;52.502;13.488;2022-09-30T16:45:37;15.70;1.00
1377;DHT22;682;52.502;13.488;2022-09-30T16:48:15;15.60;1.00
1377;DHT22;682;52.502;13.488;2022-09-30T16:50:59;15.50;1.00
1377;DHT22;682;52.502;13.488;2022-09-30T16:53:38;15.40;1.00
1377;DHT22;682;52.502;13.488;2022-09-30T16:56:27;15.40;1.00
1377;DHT22;682;52.502;13.488;2022-09-30T16:59:05;15.40;1.00
1377;DHT22;682;52.502;13.488;2022-09-30T17:01:40;15.30;1.00
1377;DHT22;682;52.502;13.488;2022-09-30T17:04:09;15.20;1.00
1377;DHT22;682;52.502;13.488;2022-09-30T17:06:41;15.10;1.00
1377;DHT22;682;52.502;13.488;2022-09-30T17:09:10;14.90;1.00
1377;DHT22;682;52.502;13.488;2022-09-30T17:11:56;14.90;1.00
1377;DHT22;682;52.502;13.488;2022-09-30T17:14:29;14.70;1.00
1377;DHT22;682;52.502;13.488;2022-09-30T17:16:59;14.60;1.00
1377;DHT22;682;52.502;13.488;2022-09-30T17:19:29;14.60;1.00
1377;DHT22;682;52.502;13.488;2022-09-30T17:22:09;14.60;1.00
1377;DHT22;682;52.502;13.488;2022-09-30T17:24:40;14.50;1.00
1377;DHT22;682;52.502;13.488;2022-09-30T17:27:08;14.40;1.00